createdAt,value
2022-09-16T00:00:31.061Z,90
2022-09-16T00:02:39.943Z,90
2022-09-16T00:04:33.133Z,90
2022-09-16T00:06:32.771Z,90
2022-09-16T00:08:31.328Z,90
2022-09-16T00:10:33.090Z,90
2022-09-16T00:12:33.643Z,90
2022-09-16T00:14:36.430Z,90
2022-09-16T00:16:30.346Z,90
2022-09-16T00:18:33.544Z,90
2022-09-16T00:20:36.194Z,90
2022-09-16T00:22:33.177Z,90
2022-09-16T00:24:34.720Z,90
2022-09-16T00:26:37.097Z,90
2022-09-16T00:28:36.168Z,90
2022-09-16T00:30:36.117Z,90
2022-09-16T00:32:33.280Z,90
2022-09-16T00:34:33.109Z,90
2022-09-16T00:36:33.175Z,90
2022-09-16T00:38:33.196Z,90
2022-09-16T00:40:32.692Z,90
2022-09-16T00:42:34.319Z,90
2022-09-16T00:44:32.971Z,90
2022-09-16T00:46:30.387Z,90
2022-09-16T00:48:39.618Z,90
2022-09-16T00:50:33.374Z,90
2022-09-16T00:52:33.381Z,90
2022-09-16T00:54:33.050Z,90
2022-09-16T00:56:35.859Z,90
2022-09-16T00:58:33.160Z,90
2022-09-16T01:00:34.541Z,90
2022-09-16T01:02:31.154Z,90
2022-09-16T01:04:31.122Z,90
2022-09-16T01:06:33.123Z,90
2022-09-16T01:08:36.421Z,90
2022-09-16T01:10:32.518Z,90
2022-09-16T01:12:33.458Z,90
2022-09-16T01:14:33.328Z,90
2022-09-16T01:16:33.214Z,90
2022-09-16T01:18:33.351Z,90
2022-09-16T01:20:33.350Z,90
2022-09-16T01:22:33.199Z,90
2022-09-16T01:24:33.089Z,90
2022-09-16T01:26:33.137Z,90
2022-09-16T01:28:31.117Z,90
2022-09-16T01:30:31.239Z,90
2022-09-16T01:32:34.260Z,90
2022-09-16T01:34:31.117Z,90
2022-09-16T01:36:36.371Z,90
2022-09-16T01:38:34.964Z,90
2022-09-16T01:40:34.730Z,90
2022-09-16T01:42:32.537Z,90
2022-09-16T01:44:36.388Z,90
2022-09-16T01:46:37.942Z,90
2022-09-16T01:48:33.077Z,90
2022-09-16T01:50:33.297Z,90
2022-09-16T01:52:36.516Z,90
2022-09-16T01:54:35.437Z,90
2022-09-16T01:56:33.211Z,90
2022-09-16T01:58:33.104Z,90
2022-09-16T02:00:34.864Z,90
2022-09-16T02:02:33.389Z,90
2022-09-16T02:04:36.946Z,90
2022-09-16T02:06:33.386Z,90
2022-09-16T02:08:33.340Z,90
2022-09-16T02:10:32.462Z,90
2022-09-16T02:12:33.161Z,90
2022-09-16T02:14:33.082Z,90
2022-09-16T02:16:31.586Z,90
2022-09-16T02:18:36.511Z,90
2022-09-16T02:20:32.813Z,90
2022-09-16T02:22:33.133Z,90
2022-09-16T02:24:29.847Z,91
2022-09-16T02:26:33.314Z,91
2022-09-16T02:28:36.116Z,91
2022-09-16T02:30:32.451Z,91
2022-09-16T02:32:33.322Z,91
2022-09-16T02:34:33.132Z,91
2022-09-16T02:36:33.107Z,91
2022-09-16T02:38:33.261Z,91
2022-09-16T02:40:31.242Z,91
2022-09-16T02:42:33.197Z,91
2022-09-16T02:44:33.306Z,91
2022-09-16T02:46:33.534Z,91
2022-09-16T02:48:33.474Z,91
2022-09-16T02:50:33.409Z,91
2022-09-16T02:52:31.352Z,91
2022-09-16T02:54:33.376Z,91
2022-09-16T02:56:36.304Z,91
2022-09-16T02:58:33.082Z,91
2022-09-16T03:00:31.592Z,91
2022-09-16T03:02:33.004Z,91
2022-09-16T03:04:33.202Z,91
2022-09-16T03:06:34.633Z,90
2022-09-16T03:08:36.405Z,90
2022-09-16T03:10:33.174Z,90
2022-09-16T03:12:33.256Z,90
2022-09-16T03:14:33.204Z,90
2022-09-16T03:16:32.957Z,90
2022-09-16T03:18:33.317Z,90
2022-09-16T03:20:33.235Z,90
2022-09-16T03:22:33.230Z,90
2022-09-16T03:24:33.159Z,90
2022-09-16T03:26:33.067Z,90
2022-09-16T03:28:36.417Z,90
2022-09-16T03:30:31.241Z,90
2022-09-16T03:32:30.543Z,90
2022-09-16T03:34:36.808Z,90
2022-09-16T03:36:33.075Z,90
2022-09-16T03:38:36.007Z,90
2022-09-16T03:40:34.878Z,90
2022-09-16T03:42:33.205Z,90
2022-09-16T03:44:33.310Z,90
2022-09-16T03:46:35.587Z,90
2022-09-16T03:48:39.602Z,89
2022-09-16T03:50:32.488Z,90
2022-09-16T03:52:29.848Z,89
2022-09-16T03:56:33.239Z,89
2022-09-16T03:58:31.286Z,89
2022-09-16T04:00:36.630Z,89
2022-09-16T04:02:35.760Z,89
2022-09-16T04:04:37.678Z,89
2022-09-16T04:06:35.378Z,89
2022-09-16T04:08:33.191Z,89
2022-09-16T04:10:33.357Z,89
2022-09-16T04:12:33.134Z,89
2022-09-16T04:14:33.188Z,89
2022-09-16T04:18:36.607Z,89
2022-09-16T04:20:36.911Z,89
2022-09-16T04:22:35.295Z,89
2022-09-16T04:24:36.061Z,89
2022-09-16T04:26:31.273Z,89
2022-09-16T04:28:33.163Z,89
2022-09-16T04:30:33.317Z,89
2022-09-16T04:32:33.209Z,89
2022-09-16T04:34:33.146Z,89
2022-09-16T04:36:31.299Z,89
2022-09-16T04:38:33.122Z,89
2022-09-16T04:40:33.302Z,89
2022-09-16T04:42:33.271Z,89
2022-09-16T04:44:33.313Z,89
2022-09-16T04:46:33.207Z,89
2022-09-16T04:48:32.770Z,89
2022-09-16T04:50:32.722Z,89
2022-09-16T04:52:34.676Z,89
2022-09-16T04:54:31.637Z,89
2022-09-16T04:56:33.469Z,89
2022-09-16T04:58:33.252Z,89
2022-09-16T05:00:32.781Z,89
2022-09-16T05:02:33.195Z,89
2022-09-16T05:04:33.411Z,89
2022-09-16T05:06:33.066Z,90
2022-09-16T05:08:34.791Z,90
2022-09-16T05:10:32.750Z,89
2022-09-16T05:12:33.263Z,90
2022-09-16T05:14:33.069Z,90
2022-09-16T05:16:33.410Z,90
2022-09-16T05:18:34.877Z,90
2022-09-16T05:20:31.263Z,90
2022-09-16T05:22:33.326Z,90
2022-09-16T05:24:31.782Z,90
2022-09-16T05:26:33.350Z,90
2022-09-16T05:28:33.505Z,90
2022-09-16T05:30:32.811Z,89
2022-09-16T05:32:34.079Z,89
2022-09-16T05:34:33.496Z,89
2022-09-16T05:36:34.768Z,89
2022-09-16T05:38:32.486Z,89
2022-09-16T05:40:33.137Z,89
2022-09-16T05:42:33.192Z,88
2022-09-16T05:44:33.209Z,88
2022-09-16T05:46:34.749Z,88
2022-09-16T05:48:33.406Z,88
2022-09-16T05:50:32.493Z,88
2022-09-16T05:52:39.456Z,88
2022-09-16T05:54:31.604Z,88
2022-09-16T05:56:33.122Z,88
2022-09-16T05:58:35.445Z,87
2022-09-16T06:00:32.580Z,87
2022-09-16T06:02:33.329Z,87
2022-09-16T06:04:33.206Z,88
2022-09-16T06:06:31.601Z,87
2022-09-16T06:08:33.382Z,88
2022-09-16T06:10:33.174Z,88
2022-09-16T06:12:34.746Z,88
2022-09-16T06:14:33.049Z,88
2022-09-16T06:16:39.667Z,88
2022-09-16T06:18:33.386Z,88
2022-09-16T06:20:32.718Z,88
2022-09-16T06:24:33.056Z,88
2022-09-16T06:26:36.068Z,88
2022-09-16T06:28:33.061Z,88
2022-09-16T06:30:33.251Z,88
2022-09-16T06:32:35.618Z,88
2022-09-16T06:34:33.175Z,87
2022-09-16T06:36:33.121Z,87
2022-09-16T06:38:34.807Z,87
2022-09-16T06:40:36.625Z,87
2022-09-16T06:42:36.360Z,87
2022-09-16T06:44:33.080Z,88
2022-09-16T06:46:33.132Z,87
2022-09-16T06:48:33.093Z,87
2022-09-16T06:50:33.403Z,87
2022-09-16T06:52:33.225Z,88
2022-09-16T06:54:36.009Z,87
2022-09-16T06:58:33.067Z,87
2022-09-16T07:00:33.124Z,87
2022-09-16T07:02:33.279Z,87
2022-09-16T07:04:31.225Z,88
2022-09-16T07:07:05.153Z,86
2022-09-16T07:08:34.773Z,87
2022-09-16T07:10:33.311Z,86
2022-09-16T07:12:33.221Z,87
2022-09-16T07:14:31.148Z,87
2022-09-16T07:16:33.262Z,86
2022-09-16T07:18:36.273Z,87
2022-09-16T07:20:33.175Z,86
2022-09-16T07:22:33.175Z,86
2022-09-16T07:24:33.099Z,87
2022-09-16T07:26:33.214Z,87
2022-09-16T07:28:32.971Z,86
2022-09-16T07:30:32.613Z,86
2022-09-16T07:32:33.196Z,86
2022-09-16T07:34:33.106Z,85
2022-09-16T07:36:33.167Z,85
2022-09-16T07:38:33.488Z,85
2022-09-16T07:40:35.701Z,85
2022-09-16T07:42:31.177Z,85
2022-09-16T07:44:33.167Z,85
2022-09-16T07:46:34.812Z,84
2022-09-16T07:48:35.039Z,84
2022-09-16T07:50:31.112Z,84
2022-09-16T07:52:32.980Z,84
2022-09-16T07:54:33.135Z,84
2022-09-16T07:56:33.091Z,84
2022-09-16T07:58:31.144Z,83
2022-09-16T08:00:38.871Z,84
2022-09-16T08:02:33.222Z,83
2022-09-16T08:04:35.594Z,84
2022-09-16T08:06:33.326Z,84
2022-09-16T08:08:33.158Z,84
2022-09-16T08:10:34.670Z,83
2022-09-16T08:12:33.122Z,84
2022-09-16T08:14:36.295Z,83
2022-09-16T08:16:33.223Z,84
2022-09-16T08:18:33.764Z,83
2022-09-16T08:20:32.679Z,84
2022-09-16T08:22:29.876Z,84
2022-09-16T08:24:33.132Z,84
2022-09-16T08:26:33.195Z,84
2022-09-16T08:28:39.603Z,85
2022-09-16T08:30:32.697Z,84
2022-09-16T08:32:31.692Z,84
2022-09-16T08:34:31.780Z,84
2022-09-16T08:36:33.377Z,85
2022-09-16T08:38:34.715Z,84
2022-09-16T08:42:33.185Z,85
2022-09-16T08:44:33.209Z,86
2022-09-16T08:46:33.087Z,84
2022-09-16T08:48:34.766Z,84
2022-09-16T08:50:39.801Z,85
2022-09-16T08:52:29.978Z,85
2022-09-16T08:54:36.511Z,84
2022-09-16T08:56:36.338Z,84
2022-09-16T08:58:33.187Z,85
2022-09-16T09:00:31.141Z,85
2022-09-16T09:02:36.127Z,84
2022-09-16T09:04:33.182Z,85
2022-09-16T09:06:33.075Z,85
2022-09-16T09:08:33.218Z,86
2022-09-16T09:10:33.080Z,86
2022-09-16T09:12:32.661Z,84
2022-09-16T09:14:33.531Z,85
2022-09-16T09:16:34.071Z,85
2022-09-16T09:18:36.504Z,85
2022-09-16T09:20:36.510Z,84
2022-09-16T09:22:33.066Z,84
2022-09-16T09:24:34.779Z,84
2022-09-16T09:26:34.502Z,84
2022-09-16T09:28:33.116Z,84
2022-09-16T09:30:36.371Z,85
2022-09-16T09:37:28.589Z,85
2022-09-16T09:50:39.977Z,87
2022-09-16T09:52:51.285Z,88
2022-09-16T09:54:51.179Z,88
2022-09-16T09:56:51.195Z,88
2022-09-16T09:58:51.209Z,88
2022-09-16T10:00:51.288Z,88
2022-09-16T10:02:51.293Z,88
2022-09-16T10:04:51.944Z,88
2022-09-16T10:06:51.307Z,88
2022-09-16T10:08:51.273Z,88
2022-09-16T10:10:51.212Z,87
2022-09-16T10:12:51.434Z,88
2022-09-16T10:14:51.239Z,87
2022-09-16T10:16:51.225Z,87
2022-09-16T10:18:51.233Z,87
2022-09-16T10:20:51.241Z,87
2022-09-16T10:22:56.939Z,87
2022-09-16T10:24:51.350Z,87
2022-09-16T10:26:51.263Z,87
2022-09-16T10:28:51.296Z,87
2022-09-16T10:30:57.322Z,87
2022-09-16T10:32:51.215Z,87
2022-09-16T10:34:53.889Z,86
2022-09-16T10:36:53.915Z,87
2022-09-16T10:38:51.635Z,86
2022-09-16T10:40:51.283Z,86
2022-09-16T10:42:57.124Z,87
2022-09-16T10:46:51.254Z,86
2022-09-16T10:48:51.243Z,87
2022-09-16T10:50:51.221Z,86
2022-09-16T10:52:51.219Z,86
2022-09-16T10:54:56.977Z,86
2022-09-16T10:56:57.295Z,86
2022-09-16T10:58:53.897Z,86
2022-09-16T11:00:51.272Z,86
2022-09-16T11:02:51.231Z,86
2022-09-16T11:04:53.880Z,86
2022-09-16T11:06:51.250Z,87
2022-09-16T11:08:51.235Z,87
2022-09-16T11:10:51.213Z,86
2022-09-16T11:12:51.267Z,86
2022-09-16T11:14:51.255Z,86
2022-09-16T11:16:51.245Z,86
2022-09-16T11:18:52.819Z,86
2022-09-16T11:20:57.244Z,86
2022-09-16T11:22:51.224Z,87
2022-09-16T11:24:51.232Z,86
2022-09-16T11:26:51.922Z,86
2022-09-16T11:28:54.065Z,86
2022-09-16T11:30:51.256Z,86
2022-09-16T11:32:51.334Z,85
2022-09-16T11:34:53.889Z,85
2022-09-16T11:36:51.346Z,86
2022-09-16T11:38:51.354Z,86
2022-09-16T11:40:51.212Z,86
2022-09-16T11:42:51.255Z,86
2022-09-16T11:44:51.304Z,86
2022-09-16T11:46:53.838Z,86
2022-09-16T11:48:53.894Z,86
2022-09-16T11:50:51.272Z,86
2022-09-16T11:52:54.133Z,85
2022-09-16T11:54:51.236Z,85
2022-09-16T11:56:51.273Z,85
2022-09-16T11:58:51.694Z,85
2022-09-16T12:00:53.651Z,85
2022-09-16T12:02:51.443Z,85
2022-09-16T12:04:51.221Z,85
2022-09-16T12:06:53.915Z,85
2022-09-16T12:08:53.976Z,85
2022-09-16T12:10:51.219Z,85
2022-09-16T12:12:53.861Z,85
2022-09-16T12:14:51.226Z,85
2022-09-16T12:16:51.259Z,84
2022-09-16T12:18:51.215Z,84
2022-09-16T12:20:51.221Z,83
2022-09-16T12:22:53.861Z,82
2022-09-16T12:26:51.237Z,82
2022-09-16T12:28:53.966Z,82
2022-09-16T12:30:54.305Z,82
2022-09-16T12:32:51.285Z,82
2022-09-16T12:34:57.578Z,83
2022-09-16T12:36:52.300Z,84
2022-09-16T12:38:51.243Z,84
2022-09-16T12:40:51.264Z,83
2022-09-16T12:42:51.269Z,84
2022-09-16T12:44:51.291Z,84
2022-09-16T12:46:51.283Z,84
2022-09-16T12:48:51.262Z,84
2022-09-16T12:50:53.958Z,84
2022-09-16T12:52:51.254Z,84
2022-09-16T12:55:07.027Z,84
2022-09-16T12:56:57.034Z,82
2022-09-16T12:58:53.881Z,81
2022-09-16T13:00:51.700Z,80
2022-09-16T13:04:51.260Z,76
2022-09-16T13:06:51.249Z,76
2022-09-16T13:08:56.963Z,75
2022-09-16T13:10:57.879Z,74
2022-09-16T13:12:51.690Z,74
2022-09-16T13:14:53.980Z,74
2022-09-16T13:16:53.878Z,75
2022-09-16T13:18:51.242Z,76
2022-09-16T13:20:51.259Z,78
2022-09-16T13:22:52.296Z,77
2022-09-16T13:24:51.829Z,78
2022-09-16T13:26:57.426Z,79
2022-09-16T13:28:54.038Z,79
2022-09-16T13:30:51.824Z,80
2022-09-16T13:32:57.322Z,80
2022-09-16T13:34:54.285Z,80
2022-09-16T13:36:51.245Z,79
2022-09-16T13:38:51.277Z,78
2022-09-16T13:40:53.865Z,78
2022-09-16T13:42:51.773Z,79
2022-09-16T13:44:51.258Z,78
2022-09-16T13:46:51.308Z,78
2022-09-16T13:48:51.274Z,80
2022-09-16T13:50:53.989Z,80
2022-09-16T13:52:53.947Z,80
2022-09-16T13:55:09.254Z,80
2022-09-16T13:56:53.967Z,81
2022-09-16T13:58:51.400Z,82
2022-09-16T14:00:53.971Z,82
2022-09-16T14:02:51.791Z,82
2022-09-16T14:04:51.273Z,81
2022-09-16T14:06:51.264Z,82
2022-09-16T14:08:51.785Z,81
2022-09-16T14:10:53.957Z,81
2022-09-16T14:12:51.263Z,81
2022-09-16T14:14:52.122Z,81
2022-09-16T14:16:51.253Z,81
2022-09-16T14:18:51.242Z,81
2022-09-16T14:20:57.288Z,81
2022-09-16T14:22:51.277Z,82
2022-09-16T14:25:00.451Z,82
2022-09-16T14:26:54.059Z,81
2022-09-16T14:28:51.314Z,81
2022-09-16T14:30:51.319Z,81
2022-09-16T14:32:51.309Z,81
2022-09-16T14:34:53.925Z,80
2022-09-16T14:36:51.259Z,80
2022-09-16T14:38:51.264Z,80
2022-09-16T14:40:57.195Z,80
2022-09-16T14:42:51.289Z,80
2022-09-16T14:44:53.956Z,80
2022-09-16T14:46:51.265Z,80
2022-09-16T14:48:51.256Z,80
2022-09-16T14:50:51.285Z,80
2022-09-16T14:52:51.275Z,79
2022-09-16T14:54:51.251Z,80
2022-09-16T14:56:51.771Z,80
2022-09-16T14:58:51.421Z,81
2022-09-16T15:00:51.665Z,81
2022-09-16T15:02:54.081Z,80
2022-09-16T15:04:51.871Z,79
2022-09-16T15:06:51.787Z,79
2022-09-16T15:08:51.281Z,78
2022-09-16T15:10:52.686Z,78
2022-09-16T15:12:53.969Z,76
2022-09-16T15:14:52.213Z,76
2022-09-16T15:16:51.289Z,76
2022-09-16T15:18:52.235Z,77
2022-09-16T15:20:54.005Z,77
2022-09-16T15:22:51.278Z,77
2022-09-16T15:24:52.141Z,77
2022-09-16T15:26:53.927Z,79
2022-09-16T15:28:51.898Z,81
2022-09-16T15:30:54.069Z,81
2022-09-16T15:32:55.610Z,81
2022-09-16T15:34:51.301Z,81
2022-09-16T15:36:54.024Z,82
2022-09-16T15:38:57.440Z,82
2022-09-16T15:40:52.198Z,82
2022-09-16T15:42:51.271Z,82
2022-09-16T15:44:51.882Z,82
2022-09-16T15:46:51.441Z,81
2022-09-16T15:48:51.277Z,81
2022-09-16T15:52:56.843Z,82
2022-09-16T15:54:51.264Z,82
2022-09-16T15:56:51.317Z,82
2022-09-16T15:58:54.019Z,82
2022-09-16T16:00:51.262Z,81
2022-09-16T16:02:57.503Z,80
2022-09-16T16:04:51.269Z,80
2022-09-16T16:06:54.871Z,80
2022-09-16T16:08:53.972Z,80
2022-09-16T16:10:53.939Z,80
2022-09-16T16:12:51.450Z,80
2022-09-16T16:14:51.272Z,80
2022-09-16T16:17:11.590Z,80
2022-09-16T16:18:57.333Z,80
2022-09-16T16:20:53.991Z,80
2022-09-16T16:22:54.356Z,80
2022-09-16T16:24:51.424Z,81
2022-09-16T16:26:56.779Z,81
2022-09-16T16:28:53.983Z,81
2022-09-16T16:30:54.068Z,81
2022-09-16T16:32:52.142Z,81
2022-09-16T16:34:51.340Z,81
2022-09-16T16:36:51.274Z,81
2022-09-16T16:38:51.270Z,81
2022-09-16T16:40:54.005Z,82
2022-09-16T16:42:53.943Z,82
2022-09-16T16:44:51.321Z,82
2022-09-16T16:46:51.288Z,82
2022-09-16T16:48:51.256Z,82
2022-09-16T16:50:51.268Z,82
2022-09-16T16:55:48.661Z,82
2022-09-16T16:57:52.630Z,82
2022-09-16T17:01:50.000Z,83
2022-09-16T17:03:50.098Z,84
2022-09-16T17:07:48.186Z,84
2022-09-16T17:09:46.034Z,84
2022-09-16T17:15:45.646Z,85
2022-09-16T17:17:48.976Z,85
2022-09-16T17:21:48.844Z,85
2022-09-16T17:23:46.211Z,85
2022-09-16T17:27:46.010Z,86
2022-09-16T17:31:48.514Z,86
2022-09-16T17:33:47.411Z,86
2022-09-16T17:35:46.315Z,86
2022-09-16T17:37:52.675Z,86
2022-09-16T17:39:48.997Z,86
2022-09-16T17:45:46.769Z,87
2022-09-16T17:47:49.262Z,87
2022-09-16T17:51:46.050Z,87
2022-09-16T17:57:47.387Z,87
2022-09-16T18:03:45.943Z,87
2022-09-16T18:09:47.823Z,87
2022-09-16T18:11:48.469Z,87
2022-09-16T18:13:48.391Z,87
2022-09-16T18:15:45.079Z,87
2022-09-16T18:21:45.885Z,87
2022-09-16T18:25:50.504Z,88
2022-09-16T18:27:46.140Z,88
2022-09-16T18:33:45.947Z,88
2022-09-16T18:35:48.185Z,88
2022-09-16T18:37:52.144Z,88
2022-09-16T18:39:52.835Z,88
2022-09-16T18:41:51.010Z,88
2022-09-16T18:43:48.513Z,88
2022-09-16T18:45:45.634Z,88
2022-09-16T18:49:47.907Z,88
2022-09-16T18:51:50.058Z,88
2022-09-16T18:57:47.517Z,88
2022-09-16T18:59:48.897Z,88
2022-09-16T19:01:47.842Z,88
2022-09-16T19:03:46.146Z,88
2022-09-16T19:09:45.816Z,88
2022-09-16T19:11:48.299Z,88
2022-09-16T19:15:49.167Z,88
2022-09-16T19:19:48.401Z,87
2022-09-16T19:21:48.221Z,87
2022-09-16T19:23:47.592Z,87
2022-09-16T19:25:48.642Z,87
2022-09-16T19:27:46.496Z,86
2022-09-16T19:29:47.557Z,86
2022-09-16T19:33:50.788Z,87
2022-09-16T19:39:47.226Z,87
2022-09-16T19:45:46.091Z,88
2022-09-16T19:47:47.771Z,87
2022-09-16T19:49:47.842Z,88
2022-09-16T19:51:46.022Z,88
2022-09-16T19:57:46.132Z,88
2022-09-16T20:01:47.326Z,87
2022-09-16T20:03:49.194Z,87
2022-09-16T20:07:48.874Z,87
2022-09-16T20:09:45.999Z,87
2022-09-16T20:15:45.949Z,86
2022-09-16T20:19:48.318Z,86
2022-09-16T20:21:46.044Z,85
2022-09-16T20:27:49.210Z,85
2022-09-16T20:29:49.134Z,86
2022-09-16T20:31:46.183Z,86
2022-09-16T20:33:48.227Z,87
2022-09-16T20:35:48.324Z,88
2022-09-16T20:37:48.762Z,88
2022-09-16T20:39:46.083Z,88
2022-09-16T20:41:48.862Z,88
2022-09-16T20:45:46.115Z,88
2022-09-16T20:47:48.211Z,87
2022-09-16T20:51:48.467Z,87
2022-09-16T20:55:49.337Z,87
2022-09-16T20:57:48.434Z,87
2022-09-16T20:59:48.767Z,87
2022-09-16T21:01:48.637Z,87
2022-09-16T21:03:46.374Z,87
2022-09-16T21:05:48.876Z,87
2022-09-16T21:09:43.310Z,87
2022-09-16T21:11:49.511Z,88
2022-09-16T21:13:48.661Z,88
2022-09-16T21:15:45.566Z,87
2022-09-16T21:21:46.451Z,87
2022-09-16T21:25:48.692Z,87
2022-09-16T21:27:49.208Z,87
2022-09-16T21:29:48.274Z,87
2022-09-16T21:31:49.170Z,87
2022-09-16T21:33:46.047Z,88
2022-09-16T21:35:49.007Z,87
2022-09-16T21:37:48.868Z,87
2022-09-16T21:39:46.218Z,88
2022-09-16T21:43:48.797Z,88
2022-09-16T21:45:48.287Z,88
2022-09-16T21:51:46.231Z,88
2022-09-16T21:55:48.338Z,88
2022-09-16T21:57:44.847Z,88
2022-09-16T22:03:49.261Z,88
2022-09-16T22:09:46.092Z,88
2022-09-16T22:11:48.797Z,88
2022-09-16T22:13:46.169Z,88
2022-09-16T22:15:49.101Z,87
2022-09-16T22:21:47.072Z,87
2022-09-16T22:25:49.103Z,87
2022-09-16T22:27:45.587Z,87
2022-09-16T22:29:49.096Z,87
2022-09-16T22:33:49.516Z,87
2022-09-16T22:39:46.174Z,87
2022-09-16T22:41:48.253Z,87
2022-09-16T22:45:49.161Z,87
2022-09-16T22:47:49.233Z,87
2022-09-16T22:51:46.084Z,87
2022-09-16T22:53:49.199Z,87
2022-09-16T22:55:47.373Z,87
2022-09-16T22:57:46.038Z,87
2022-09-16T23:01:48.853Z,87
2022-09-16T23:03:49.535Z,87
2022-09-16T23:05:48.397Z,87
2022-09-16T23:07:48.877Z,87
2022-09-16T23:09:46.083Z,87
2022-09-16T23:13:46.117Z,87
2022-09-16T23:15:45.920Z,87
2022-09-16T23:17:46.411Z,87
2022-09-16T23:21:45.953Z,87
2022-09-16T23:27:47.314Z,87
2022-09-16T23:31:46.336Z,87
2022-09-16T23:33:47.704Z,87
2022-09-16T23:35:48.784Z,87
2022-09-16T23:37:48.808Z,88
2022-09-16T23:39:46.123Z,88
2022-09-16T23:41:48.770Z,88
2022-09-16T23:45:49.162Z,88
2022-09-16T23:49:48.830Z,88
2022-09-16T23:51:44.290Z,88
2022-09-16T23:57:49.263Z,87
2022-09-16T23:59:48.707Z,87
